createdAt,value
2022-08-16T00:00:04.498Z,78.20
2022-08-16T00:02:31.612Z,77.07
2022-08-16T00:04:59.663Z,76.20
2022-08-16T00:07:26.443Z,76.03
2022-08-16T00:09:55.663Z,76.99
2022-08-16T00:12:21.950Z,76.72
2022-08-16T00:14:50.025Z,76.83
2022-08-16T00:17:18.374Z,76.96
2022-08-16T00:19:45.352Z,76.88
2022-08-16T00:22:13.370Z,76.74
2022-08-16T00:24:40.158Z,76.12
2022-08-16T00:27:11.156Z,76.90
2022-08-16T00:29:37.469Z,76.65
2022-08-16T00:32:05.922Z,76.02
2022-08-16T00:34:43.744Z,76.12
2022-08-16T00:37:20.512Z,75.51
2022-08-16T00:39:47.603Z,75.44
2022-08-16T00:42:14.240Z,76.09
2022-08-16T00:44:56.206Z,76.52
2022-08-16T00:47:22.539Z,77.23
2022-08-16T00:49:56.594Z,77.09
2022-08-16T00:52:29.654Z,76.72
2022-08-16T00:54:56.996Z,76.55
2022-08-16T00:57:23.979Z,76.30
2022-08-16T00:59:54.855Z,76.04
2022-08-16T01:02:31.339Z,74.96
2022-08-16T01:05:11.221Z,74.26
2022-08-16T01:07:50.535Z,74.92
2022-08-16T01:10:18.594Z,74.31
2022-08-16T01:12:44.896Z,75.69
2022-08-16T01:15:11.255Z,75.15
2022-08-16T01:17:38.975Z,76.43
2022-08-16T01:20:24.134Z,76.74
2022-08-16T01:22:52.310Z,76.46
2022-08-16T01:25:18.917Z,76.41
2022-08-16T01:27:48.018Z,78.67
2022-08-16T01:30:18.083Z,79.89
2022-08-16T01:32:47.243Z,79.44
2022-08-16T01:35:28.559Z,77.58
2022-08-16T01:38:01.475Z,76.60
2022-08-16T01:40:28.064Z,76.72
2022-08-16T01:42:54.381Z,77.25
2022-08-16T01:45:21.890Z,76.84
2022-08-16T01:47:49.281Z,76.77
2022-08-16T01:50:43.086Z,78.94
2022-08-16T01:53:03.704Z,79.26
2022-08-16T01:55:35.860Z,78.48
2022-08-16T01:58:06.916Z,78.83
2022-08-16T02:00:37.196Z,78.43
2022-08-16T02:03:04.152Z,77.67
2022-08-16T02:05:31.030Z,78.22
2022-08-16T02:07:58.318Z,77.64
2022-08-16T02:10:24.603Z,77.95
2022-08-16T02:12:55.908Z,78.00
2022-08-16T02:15:27.031Z,77.56
2022-08-16T02:17:53.336Z,80.37
2022-08-16T02:20:19.732Z,80.27
2022-08-16T02:22:52.808Z,79.30
2022-08-16T02:25:21.674Z,80.41
2022-08-16T02:27:51.048Z,79.23
2022-08-16T02:30:37.130Z,79.12
2022-08-16T02:33:04.346Z,78.57
2022-08-16T02:35:31.722Z,78.43
2022-08-16T02:38:08.659Z,78.54
2022-08-16T02:40:35.468Z,79.09
2022-08-16T02:43:02.825Z,79.18
2022-08-16T02:45:29.189Z,79.04
2022-08-16T02:48:01.501Z,78.54
2022-08-16T02:50:53.509Z,78.41
2022-08-16T02:53:28.855Z,78.35
2022-08-16T02:55:56.175Z,77.48
2022-08-16T02:58:25.686Z,77.68
2022-08-16T03:00:52.033Z,77.45
2022-08-16T03:03:18.724Z,79.23
2022-08-16T03:05:49.853Z,79.40
2022-08-16T03:08:49.748Z,79.25
2022-08-16T03:11:05.518Z,79.00
2022-08-16T03:13:43.309Z,80.01
2022-08-16T03:16:32.701Z,79.25
2022-08-16T03:19:00.150Z,78.64
2022-08-16T03:21:28.815Z,78.19
2022-08-16T03:24:04.661Z,78.49
2022-08-16T03:26:31.967Z,78.45
2022-08-16T03:28:58.347Z,78.64
2022-08-16T03:31:25.712Z,78.29
2022-08-16T03:34:01.220Z,78.38
2022-08-16T03:36:32.614Z,79.19
2022-08-16T03:38:59.249Z,79.00
2022-08-16T03:41:29.377Z,79.15
2022-08-16T03:44:01.784Z,79.96
2022-08-16T03:46:47.729Z,79.28
2022-08-16T03:49:17.220Z,78.86
2022-08-16T03:51:43.529Z,78.66
2022-08-16T03:54:12.267Z,78.51
2022-08-16T03:56:39.070Z,78.23
2022-08-16T03:59:23.703Z,77.98
2022-08-16T04:01:50.036Z,78.53
2022-08-16T04:04:32.794Z,78.43
2022-08-16T04:07:00.464Z,78.51
2022-08-16T04:09:29.231Z,78.46
2022-08-16T04:11:56.206Z,78.26
2022-08-16T04:14:30.933Z,78.52
2022-08-16T04:17:00.897Z,77.63
2022-08-16T04:19:31.572Z,77.89
2022-08-16T04:21:58.208Z,79.08
2022-08-16T04:24:28.835Z,78.74
2022-08-16T04:26:55.184Z,79.26
2022-08-16T04:29:23.623Z,79.29
2022-08-16T04:31:56.473Z,79.23
2022-08-16T04:34:24.898Z,78.04
2022-08-16T04:36:52.774Z,78.36
2022-08-16T04:39:19.867Z,78.92
2022-08-16T04:41:50.256Z,79.10
2022-08-16T04:44:32.510Z,78.08
2022-08-16T04:47:21.668Z,78.94
2022-08-16T04:49:50.633Z,78.87
2022-08-16T04:52:34.548Z,78.41
2022-08-16T04:55:01.731Z,78.98
2022-08-16T04:57:29.941Z,78.44
2022-08-16T04:59:56.676Z,76.88
2022-08-16T05:02:41.400Z,77.11
2022-08-16T05:05:09.329Z,77.46
2022-08-16T05:07:57.773Z,77.33
2022-08-16T05:10:27.082Z,76.10
2022-08-16T05:12:53.726Z,76.05
2022-08-16T05:15:20.055Z,75.77
2022-08-16T05:17:46.716Z,75.13
2022-08-16T05:20:35.174Z,74.40
2022-08-16T05:22:59.329Z,74.13
2022-08-16T05:25:40.744Z,74.49
2022-08-16T05:28:10.555Z,74.84
2022-08-16T05:30:38.437Z,73.46
2022-08-16T05:33:04.876Z,73.40
2022-08-16T05:35:32.558Z,73.60
2022-08-16T05:37:58.919Z,72.42
2022-08-16T05:40:25.278Z,72.11
2022-08-16T05:42:52.918Z,72.05
2022-08-16T05:45:23.214Z,70.89
2022-08-16T05:47:59.431Z,70.45
2022-08-16T05:50:28.222Z,70.02
2022-08-16T05:53:00.573Z,69.94
2022-08-16T05:55:27.667Z,70.16
2022-08-16T05:57:56.329Z,71.25
2022-08-16T06:00:22.900Z,70.55
2022-08-16T06:02:50.135Z,69.71
2022-08-16T06:05:16.515Z,70.33
2022-08-16T06:07:42.951Z,69.39
2022-08-16T06:10:09.794Z,68.62
2022-08-16T06:12:36.142Z,67.85
2022-08-16T06:15:07.602Z,67.03
2022-08-16T06:17:42.692Z,65.76
2022-08-16T06:20:10.619Z,66.85
2022-08-16T06:22:39.162Z,66.99
2022-08-16T06:25:05.907Z,65.64
2022-08-16T06:27:39.642Z,65.11
2022-08-16T06:30:07.280Z,65.57
2022-08-16T06:32:38.336Z,64.73
2022-08-16T06:35:09.902Z,63.22
2022-08-16T06:37:37.317Z,63.15
2022-08-16T06:40:04.315Z,62.12
2022-08-16T06:42:47.294Z,62.08
2022-08-16T06:45:14.523Z,61.51
2022-08-16T06:47:53.103Z,61.52
2022-08-16T06:50:28.783Z,60.56
2022-08-16T06:52:59.913Z,59.10
2022-08-16T06:55:30.969Z,61.00
2022-08-16T06:58:00.881Z,59.05
2022-08-16T07:00:27.611Z,58.18
2022-08-16T07:02:54.667Z,57.64
2022-08-16T07:05:27.327Z,59.43
2022-08-16T07:08:10.519Z,58.93
2022-08-16T07:10:38.360Z,59.45
2022-08-16T07:13:11.579Z,59.81
2022-08-16T07:15:50.450Z,56.24
2022-08-16T07:18:19.704Z,56.95
2022-08-16T07:20:47.773Z,56.89
2022-08-16T07:23:14.663Z,57.06
2022-08-16T07:25:40.995Z,56.06
2022-08-16T07:28:09.291Z,54.45
2022-08-16T07:30:46.527Z,56.81
2022-08-16T07:33:15.879Z,56.02
2022-08-16T07:35:44.220Z,56.59
2022-08-16T07:38:19.574Z,55.35
2022-08-16T07:41:02.189Z,54.85
2022-08-16T07:43:32.736Z,52.75
2022-08-16T07:45:59.487Z,54.00
2022-08-16T07:48:27.745Z,54.43
2022-08-16T07:50:57.033Z,54.53
2022-08-16T07:53:25.488Z,55.17
2022-08-16T07:55:55.524Z,55.65
2022-08-16T07:58:33.810Z,54.39
2022-08-16T08:01:01.994Z,54.14
2022-08-16T08:03:38.776Z,53.49
2022-08-16T08:06:05.730Z,54.60
2022-08-16T08:08:51.732Z,51.46
2022-08-16T08:11:18.682Z,50.31
2022-08-16T08:13:44.983Z,50.70
2022-08-16T08:16:18.808Z,50.53
2022-08-16T08:18:49.811Z,50.47
2022-08-16T08:21:19.343Z,48.01
2022-08-16T08:23:52.719Z,48.79
2022-08-16T08:26:19.306Z,47.92
2022-08-16T08:28:45.612Z,48.05
2022-08-16T08:31:11.931Z,48.08
2022-08-16T08:33:47.187Z,48.95
2022-08-16T08:36:21.694Z,48.83
2022-08-16T08:38:49.695Z,48.03
2022-08-16T08:41:18.352Z,46.76
2022-08-16T08:43:45.428Z,46.26
2022-08-16T08:46:18.184Z,47.33
2022-08-16T08:49:00.125Z,46.23
2022-08-16T08:51:35.765Z,46.71
2022-08-16T08:54:06.744Z,46.59
2022-08-16T08:56:34.829Z,44.50
2022-08-16T08:59:06.046Z,46.38
2022-08-16T09:01:57.697Z,44.35
2022-08-16T09:04:24.660Z,46.07
2022-08-16T09:06:53.577Z,44.15
2022-08-16T09:09:20.037Z,44.02
2022-08-16T09:11:52.430Z,44.00
2022-08-16T09:14:26.682Z,43.18
2022-08-16T09:17:02.329Z,44.00
2022-08-16T09:19:31.940Z,44.09
2022-08-16T09:21:59.403Z,44.47
2022-08-16T09:24:46.683Z,44.20
2022-08-16T09:27:11.948Z,42.99
2022-08-16T09:29:44.939Z,42.85
2022-08-16T09:32:12.111Z,42.55
2022-08-16T09:34:38.634Z,42.38
2022-08-16T09:37:18.177Z,43.21
2022-08-16T09:39:50.100Z,42.88
2022-08-16T09:42:16.787Z,42.26
2022-08-16T09:45:09.342Z,41.82
2022-08-16T09:47:57.171Z,42.63
2022-08-16T09:50:22.720Z,41.16
2022-08-16T09:52:49.772Z,41.83
2022-08-16T09:55:16.125Z,41.61
2022-08-16T09:57:42.601Z,42.16
2022-08-16T10:00:42.141Z,41.48
2022-08-16T10:03:05.878Z,40.76
2022-08-16T10:05:37.239Z,39.39
2022-08-16T10:08:25.777Z,39.66
2022-08-16T10:11:09.530Z,38.74
2022-08-16T10:13:35.939Z,40.26
2022-08-16T10:16:02.325Z,39.15
2022-08-16T10:18:56.801Z,39.38
2022-08-16T10:21:16.153Z,39.38
2022-08-16T10:23:43.332Z,39.36
2022-08-16T10:27:16.755Z,38.06
2022-08-16T10:28:55.912Z,38.74
2022-08-16T10:31:43.663Z,38.97
2022-08-16T10:34:30.678Z,38.78
2022-08-16T10:36:55.330Z,39.56
2022-08-16T10:39:21.762Z,39.98
2022-08-16T10:41:50.743Z,40.03
2022-08-16T10:44:17.747Z,38.86
2022-08-16T10:46:44.083Z,37.28
2022-08-16T10:49:11.418Z,37.72
2022-08-16T10:52:01.953Z,37.29
2022-08-16T10:54:29.829Z,37.09
2022-08-16T10:56:57.499Z,37.72
2022-08-16T10:59:38.326Z,38.59
2022-08-16T11:02:58.930Z,38.13
2022-08-16T11:05:09.389Z,38.70
2022-08-16T11:07:45.500Z,38.46
2022-08-16T11:10:20.878Z,37.72
2022-08-16T11:13:58.138Z,38.41
2022-08-16T11:15:55.751Z,39.38
2022-08-16T11:18:48.514Z,37.44
2022-08-16T11:21:08.986Z,37.70
2022-08-16T11:23:58.113Z,36.76
2022-08-16T11:26:25.351Z,37.33
2022-08-16T11:31:39.372Z,37.90
2022-08-16T11:34:09.191Z,36.46
2022-08-16T11:36:36.645Z,37.26
2022-08-16T11:39:03.530Z,37.06
2022-08-16T11:41:33.978Z,37.42
2022-08-16T11:44:00.945Z,37.90
2022-08-16T11:46:43.501Z,37.09
2022-08-16T11:49:13.870Z,36.10
2022-08-16T11:51:43.776Z,36.08
2022-08-16T11:54:20.696Z,36.04
2022-08-16T11:56:53.194Z,36.31
2022-08-16T11:59:25.360Z,36.13
2022-08-16T12:01:58.926Z,36.94
2022-08-16T12:04:26.486Z,36.20
2022-08-16T12:06:53.760Z,35.51
2022-08-16T12:09:21.089Z,36.74
2022-08-16T12:11:52.730Z,35.92
2022-08-16T12:14:19.659Z,36.33
2022-08-16T12:16:55.607Z,36.30
2022-08-16T12:19:23.509Z,36.73
2022-08-16T12:22:01.963Z,35.99
2022-08-16T12:24:32.349Z,35.98
2022-08-16T12:26:59.989Z,36.35
2022-08-16T12:29:29.394Z,35.74
2022-08-16T12:32:00.490Z,35.18
2022-08-16T12:34:38.275Z,35.58
2022-08-16T12:37:15.457Z,34.96
2022-08-16T12:39:50.638Z,35.21
2022-08-16T12:42:19.362Z,34.01
2022-08-16T12:44:46.760Z,34.39
2022-08-16T12:47:32.568Z,35.09
2022-08-16T12:49:58.862Z,34.67
2022-08-16T12:52:33.160Z,34.48
2022-08-16T12:55:00.227Z,35.04
2022-08-16T12:57:29.352Z,34.97
2022-08-16T13:00:03.147Z,34.69
2022-08-16T13:02:33.691Z,35.18
2022-08-16T13:05:02.763Z,34.51
2022-08-16T13:07:31.225Z,35.11
2022-08-16T13:10:21.251Z,34.49
2022-08-16T13:12:55.772Z,34.48
2022-08-16T13:15:24.000Z,34.04
2022-08-16T13:17:50.385Z,33.93
2022-08-16T13:20:16.710Z,33.13
2022-08-16T13:22:43.014Z,33.79
2022-08-16T13:25:10.339Z,34.61
2022-08-16T13:28:02.116Z,35.06
2022-08-16T13:30:37.264Z,34.35
2022-08-16T13:33:12.527Z,33.57
2022-08-16T13:35:43.236Z,34.49
2022-08-16T13:38:09.764Z,35.12
2022-08-16T13:40:37.400Z,34.76
2022-08-16T13:43:04.074Z,33.98
2022-08-16T13:45:45.134Z,33.02
2022-08-16T13:48:21.908Z,33.72
2022-08-16T13:50:52.339Z,34.00
2022-08-16T13:53:18.651Z,33.64
2022-08-16T13:55:58.784Z,33.10
2022-08-16T13:58:36.571Z,33.29
2022-08-16T14:01:11.821Z,33.41
2022-08-16T14:03:38.464Z,33.54
2022-08-16T14:06:05.564Z,32.85
2022-08-16T14:08:32.152Z,32.84
2022-08-16T14:10:58.535Z,32.74
2022-08-16T14:13:24.864Z,33.50
2022-08-16T14:15:51.188Z,33.32
2022-08-16T14:18:20.317Z,33.72
2022-08-16T14:20:48.683Z,32.79
2022-08-16T14:23:17.512Z,33.48
2022-08-16T14:25:54.343Z,34.44
2022-08-16T14:28:25.814Z,33.10
2022-08-16T14:30:52.604Z,32.87
2022-08-16T14:33:19.534Z,33.78
2022-08-16T14:35:50.067Z,33.89
2022-08-16T14:38:18.207Z,33.54
2022-08-16T14:40:47.173Z,33.14
2022-08-16T14:43:18.878Z,32.54
2022-08-16T14:45:46.071Z,33.63
2022-08-16T14:48:21.527Z,33.12
2022-08-16T14:50:51.884Z,33.59
2022-08-16T14:53:18.167Z,33.78
2022-08-16T14:55:44.467Z,33.44
2022-08-16T14:58:19.219Z,32.92
2022-08-16T15:00:46.261Z,33.30
2022-08-16T15:03:12.594Z,33.83
2022-08-16T15:05:38.895Z,32.53
2022-08-16T15:08:05.330Z,33.37
2022-08-16T15:10:32.272Z,32.05
2022-08-16T15:12:58.922Z,32.08
2022-08-16T15:15:25.202Z,32.98
2022-08-16T15:17:53.734Z,32.54
2022-08-16T15:20:21.004Z,33.55
2022-08-16T15:22:47.328Z,33.80
2022-08-16T15:25:13.650Z,33.34
2022-08-16T15:27:42.261Z,33.50
2022-08-16T15:30:44.783Z,34.07
2022-08-16T15:32:55.021Z,33.15
2022-08-16T15:35:21.311Z,34.65
2022-08-16T15:37:54.319Z,32.55
2022-08-16T15:40:32.036Z,33.22
2022-08-16T15:43:01.513Z,33.30
2022-08-16T15:45:46.344Z,32.92
2022-08-16T15:48:12.900Z,33.77
2022-08-16T15:50:43.634Z,34.12
2022-08-16T15:53:12.310Z,33.80
2022-08-16T15:55:38.908Z,33.38
2022-08-16T15:58:34.865Z,35.45
2022-08-16T16:00:51.788Z,34.71
2022-08-16T16:03:18.147Z,35.63
2022-08-16T16:05:44.423Z,35.34
2022-08-16T16:08:12.856Z,35.92
2022-08-16T16:10:41.472Z,35.05
2022-08-16T16:13:08.781Z,34.69
2022-08-16T16:15:35.231Z,33.65
2022-08-16T16:18:09.294Z,34.35
2022-08-16T16:20:37.325Z,34.68
2022-08-16T16:23:10.022Z,34.39
2022-08-16T16:25:36.471Z,34.80
2022-08-16T16:28:02.930Z,35.62
2022-08-16T16:30:45.055Z,35.80
2022-08-16T16:33:11.805Z,34.19
2022-08-16T16:35:41.976Z,33.79
2022-08-16T16:38:15.459Z,33.69
2022-08-16T16:40:46.537Z,34.62
2022-08-16T16:43:20.733Z,33.54
2022-08-16T16:45:55.926Z,33.92
2022-08-16T16:48:22.448Z,34.16
2022-08-16T16:50:57.905Z,34.79
2022-08-16T16:53:24.206Z,34.33
2022-08-16T16:55:58.178Z,35.13
2022-08-16T16:58:53.292Z,35.12
2022-08-16T17:01:20.740Z,35.29
2022-08-16T17:03:53.799Z,35.01
2022-08-16T17:06:20.308Z,34.95
2022-08-16T17:08:47.715Z,35.10
2022-08-16T17:11:17.616Z,35.33
2022-08-16T17:13:44.391Z,35.33
2022-08-16T17:16:18.652Z,35.79
2022-08-16T17:19:17.056Z,36.15
2022-08-16T17:21:33.489Z,36.62
2022-08-16T17:24:03.355Z,37.02
2022-08-16T17:26:49.142Z,36.34
2022-08-16T17:29:22.153Z,36.39
2022-08-16T17:32:33.255Z,36.81
2022-08-16T17:34:45.401Z,37.43
2022-08-16T17:37:13.558Z,37.12
2022-08-16T17:39:58.128Z,37.00
2022-08-16T17:42:26.716Z,37.88
2022-08-16T17:44:54.534Z,38.07
2022-08-16T17:47:21.314Z,37.23
2022-08-16T17:49:47.610Z,38.49
2022-08-16T17:52:14.640Z,39.21
2022-08-16T17:54:40.954Z,39.54
2022-08-16T17:57:07.284Z,40.17
2022-08-16T17:59:41.330Z,39.94
2022-08-16T18:02:42.084Z,40.21
2022-08-16T18:04:54.124Z,39.74
2022-08-16T18:07:20.518Z,41.43
2022-08-16T18:09:46.813Z,41.52
2022-08-16T18:12:44.064Z,42.73
2022-08-16T18:15:00.202Z,42.64
2022-08-16T18:17:26.723Z,42.53
2022-08-16T18:19:53.023Z,43.59
2022-08-16T18:22:19.360Z,43.00
2022-08-16T18:24:45.665Z,43.82
2022-08-16T18:27:25.894Z,43.96
2022-08-16T18:29:53.273Z,44.19
2022-08-16T18:32:24.526Z,44.87
2022-08-16T18:34:51.399Z,45.41
2022-08-16T18:37:17.696Z,44.87
2022-08-16T18:39:44.087Z,45.32
2022-08-16T18:42:10.428Z,45.00
2022-08-16T18:44:36.775Z,45.57
2022-08-16T18:47:03.094Z,46.23
2022-08-16T18:49:29.394Z,46.31
2022-08-16T18:51:55.684Z,46.32
2022-08-16T18:54:24.429Z,46.84
2022-08-16T18:56:56.461Z,46.40
2022-08-16T18:59:23.952Z,47.42
2022-08-16T19:01:51.038Z,47.99
2022-08-16T19:04:50.486Z,47.94
2022-08-16T19:07:03.673Z,48.24
2022-08-16T19:09:29.977Z,48.33
2022-08-16T19:11:56.288Z,48.29
2022-08-16T19:14:29.858Z,48.38
2022-08-16T19:16:56.165Z,48.64
2022-08-16T19:19:22.862Z,48.36
2022-08-16T19:21:49.162Z,48.61
2022-08-16T19:24:18.145Z,48.83
2022-08-16T19:26:45.377Z,48.90
2022-08-16T19:29:11.891Z,49.14
2022-08-16T19:31:39.899Z,49.96
2022-08-16T19:34:06.334Z,50.56
2022-08-16T19:36:35.266Z,50.63
2022-08-16T19:39:04.667Z,50.77
2022-08-16T19:41:32.016Z,50.51
2022-08-16T19:43:58.302Z,50.38
2022-08-16T19:46:24.610Z,50.11
2022-08-16T19:48:50.914Z,50.12
2022-08-16T19:51:17.241Z,50.41
2022-08-16T19:53:43.586Z,50.97
2022-08-16T19:56:09.979Z,50.86
2022-08-16T19:58:36.762Z,51.62
2022-08-16T20:01:03.019Z,51.56
2022-08-16T20:03:29.371Z,51.17
2022-08-16T20:05:56.555Z,51.92
2022-08-16T20:08:22.835Z,51.96
2022-08-16T20:10:50.457Z,51.44
2022-08-16T20:13:17.023Z,51.66
2022-08-16T20:15:43.283Z,51.30
2022-08-16T20:18:17.160Z,51.00
2022-08-16T20:20:51.481Z,51.53
2022-08-16T20:23:24.381Z,51.82
2022-08-16T20:25:51.587Z,51.71
2022-08-16T20:28:33.424Z,50.79
2022-08-16T20:31:04.180Z,51.47
2022-08-16T20:33:30.477Z,51.04
2022-08-16T20:35:56.784Z,51.62
2022-08-16T20:38:24.558Z,52.35
2022-08-16T20:40:50.913Z,52.69
2022-08-16T20:43:17.218Z,52.84
2022-08-16T20:45:43.522Z,53.08
2022-08-16T20:48:10.062Z,52.83
2022-08-16T20:50:36.373Z,53.01
2022-08-16T20:53:02.658Z,52.56
2022-08-16T20:55:28.971Z,51.45
2022-08-16T20:57:55.258Z,51.23
2022-08-16T21:00:21.569Z,52.02
2022-08-16T21:02:47.876Z,50.56
2022-08-16T21:05:14.174Z,53.33
2022-08-16T21:07:40.473Z,53.19
2022-08-16T21:10:07.520Z,52.14
2022-08-16T21:12:34.804Z,51.85
2022-08-16T21:15:04.283Z,51.63
2022-08-16T21:17:30.564Z,51.42
2022-08-16T21:19:56.878Z,51.76
2022-08-16T21:22:23.188Z,51.66
2022-08-16T21:24:49.693Z,51.59
2022-08-16T21:27:20.506Z,51.42
2022-08-16T21:29:48.747Z,51.09
2022-08-16T21:32:15.393Z,51.18
2022-08-16T21:34:41.700Z,52.04
2022-08-16T21:37:07.995Z,52.12
2022-08-16T21:39:34.328Z,51.62
2022-08-16T21:42:00.647Z,51.47
2022-08-16T21:44:31.188Z,50.71
2022-08-16T21:47:04.847Z,50.93
2022-08-16T21:49:31.152Z,50.01
2022-08-16T21:51:57.450Z,50.42
2022-08-16T21:54:23.749Z,51.17
2022-08-16T21:56:50.094Z,50.80
2022-08-16T21:59:16.420Z,50.98
2022-08-16T22:01:42.757Z,50.03
2022-08-16T22:04:37.515Z,49.94
2022-08-16T22:06:55.561Z,50.92
2022-08-16T22:09:21.957Z,51.66
2022-08-16T22:11:48.265Z,51.23
2022-08-16T22:14:14.603Z,50.66
2022-08-16T22:16:41.692Z,50.92
2022-08-16T22:19:07.996Z,52.44
2022-08-16T22:21:34.315Z,52.78
2022-08-16T22:24:00.611Z,52.38
2022-08-16T22:26:30.999Z,52.18
2022-08-16T22:28:57.848Z,51.81
2022-08-16T22:31:27.839Z,51.87
2022-08-16T22:33:55.883Z,52.81
2022-08-16T22:36:22.211Z,53.61
2022-08-16T22:38:53.620Z,53.70
2022-08-16T22:41:21.877Z,52.89
2022-08-16T22:43:48.375Z,52.77
2022-08-16T22:46:14.668Z,53.45
2022-08-16T22:48:42.492Z,53.62
2022-08-16T22:51:09.079Z,53.42
2022-08-16T22:53:35.384Z,53.78
2022-08-16T22:56:03.815Z,53.16
2022-08-16T22:58:36.438Z,53.76
2022-08-16T23:01:05.963Z,54.50
2022-08-16T23:03:32.461Z,54.00
2022-08-16T23:06:00.381Z,54.53
2022-08-16T23:08:38.632Z,54.35
2022-08-16T23:11:06.524Z,54.76
2022-08-16T23:13:32.909Z,54.27
2022-08-16T23:16:00.674Z,54.81
2022-08-16T23:18:29.411Z,55.03
2022-08-16T23:20:55.744Z,54.17
2022-08-16T23:23:23.966Z,53.99
2022-08-16T23:25:54.926Z,53.70
2022-08-16T23:28:21.524Z,54.49
2022-08-16T23:30:48.715Z,54.84
2022-08-16T23:33:15.456Z,55.34
2022-08-16T23:35:45.371Z,55.42
2022-08-16T23:38:38.464Z,54.64
2022-08-16T23:40:58.465Z,54.71
2022-08-16T23:43:24.767Z,54.99
2022-08-16T23:45:51.598Z,55.08
2022-08-16T23:48:17.860Z,55.90
2022-08-16T23:50:44.176Z,56.41
2022-08-16T23:53:10.469Z,55.85
2022-08-16T23:55:36.772Z,55.45
2022-08-16T23:58:03.074Z,55.33
